Time;durP1;ratioP1;P1;durP2;ratioP2;P2;SDS_P1;SDS_P2;PMS_P1;PMS_P2;Temp;Humidity;BMP_temperature;BMP_pressure;BME280_temperature;BME280_humidity;BME280_pressure;Samples;Min_cycle;Max_cycle;Signal;HPM_P1;HPM_P2
2021/03/01 00:01:16;;;;;;;16.00;11.97;;;2.90;99.10;;;;;;5031481;28;20260;-66
2021/03/01 00:03:42;;;;;;;15.93;12.83;;;2.80;99.90;;;;;;5022535;28;20199;-66
2021/03/01 00:06:08;;;;;;;15.23;12.33;;;2.80;99.90;;;;;;5030769;28;20170;-66
2021/03/01 00:08:33;;;;;;;18.57;11.27;;;2.80;99.80;;;;;;5022375;28;20693;-66
2021/03/01 00:10:59;;;;;;;15.30;12.23;;;2.70;98.90;;;;;;5033481;28;20182;-66
2021/03/01 00:13:25;;;;;;;15.37;12.13;;;2.70;99.10;;;;;;5026590;28;20246;-66
2021/03/01 00:15:52;;;;;;;20.23;13.80;;;2.70;99.20;;;;;;5025386;28;20185;-66
2021/03/01 00:18:17;;;;;;;16.20;13.03;;;2.70;99.90;;;;;;5028355;28;20572;-66
2021/03/01 00:20:43;;;;;;;17.90;12.97;;;2.70;99.90;;;;;;5038688;28;20172;-66
2021/03/01 00:23:10;;;;;;;14.63;11.87;;;2.70;99.90;;;;;;5027113;28;20184;-66
2021/03/01 00:25:38;;;;;;;16.80;12.67;;;2.70;99.90;;;;;;5020873;28;20289;-66
2021/03/01 00:28:08;;;;;;;19.57;14.07;;;2.70;99.90;;;;;;5029213;28;20240;-66
2021/03/01 00:30:34;;;;;;;18.33;13.03;;;2.70;99.90;;;;;;5015478;28;20224;-66
2021/03/01 00:33:00;;;;;;;16.73;13.20;;;2.70;99.90;;;;;;5022493;28;20207;-66
2021/03/01 00:35:26;;;;;;;17.00;12.70;;;2.70;99.90;;;;;;5030323;28;20232;-66
2021/03/01 00:37:51;;;;;;;14.70;13.13;;;2.70;99.90;;;;;;5039004;28;20181;-66
2021/03/01 00:40:18;;;;;;;16.03;12.97;;;2.60;99.90;;;;;;5037193;28;20192;-66
2021/03/01 00:42:44;;;;;;;16.10;13.13;;;2.60;99.90;;;;;;5026997;28;20208;-66
2021/03/01 00:45:10;;;;;;;16.03;12.57;;;2.60;99.90;;;;;;5041731;28;21568;-66
2021/03/01 00:47:36;;;;;;;15.37;12.30;;;2.60;99.90;;;;;;5034477;28;20179;-66
2021/03/01 00:50:03;;;;;;;15.07;12.23;;;2.50;99.70;;;;;;5027843;28;20188;-67
2021/03/01 00:52:29;;;;;;;16.10;11.90;;;2.50;99.90;;;;;;5038554;28;20186;-66
2021/03/01 00:54:55;;;;;;;13.97;12.30;;;2.50;99.90;;;;;;5036033;28;20197;-66
2021/03/01 00:57:20;;;;;;;16.10;12.87;;;2.40;99.90;;;;;;5030782;28;20304;-66
2021/03/01 00:59:46;;;;;;;15.67;13.03;;;2.40;99.90;;;;;;5032494;28;20250;-66
2021/03/01 01:02:11;;;;;;;15.67;13.20;;;2.40;99.90;;;;;;5033157;28;20177;-66
2021/03/01 01:04:37;;;;;;;16.90;12.73;;;2.30;99.90;;;;;;5042289;28;20196;-66
2021/03/01 01:07:03;;;;;;;14.13;12.27;;;2.30;99.90;;;;;;5023396;28;20185;-66
2021/03/01 01:09:28;;;;;;;16.50;12.33;;;2.20;99.90;;;;;;5028627;28;20188;-67
2021/03/01 01:11:54;;;;;;;15.63;12.93;;;2.20;99.90;;;;;;5035353;28;20183;-67
2021/03/01 01:14:19;;;;;;;15.27;12.37;;;2.10;99.90;;;;;;5039611;28;20207;-66
2021/03/01 01:16:45;;;;;;;15.03;12.03;;;2.00;99.90;;;;;;5020646;28;20279;-67
2021/03/01 01:19:11;;;;;;;19.67;13.33;;;2.00;99.90;;;;;;5029819;28;20277;-67
2021/03/01 01:21:36;;;;;;;15.83;13.10;;;2.00;99.90;;;;;;5028808;28;20184;-67
2021/03/01 01:24:02;;;;;;;14.70;12.20;;;1.90;99.90;;;;;;5019472;28;20216;-66
2021/03/01 01:26:28;;;;;;;15.17;12.97;;;1.90;99.90;;;;;;5029468;28;20187;-66
2021/03/01 01:28:55;;;;;;;17.10;13.13;;;1.80;99.90;;;;;;5030776;28;20245;-66
2021/03/01 01:31:20;;;;;;;19.73;14.07;;;1.80;99.90;;;;;;5020817;28;20227;-66
2021/03/01 01:33:46;;;;;;;16.60;13.20;;;1.80;99.90;;;;;;5019715;28;20205;-66
2021/03/01 01:36:11;;;;;;;17.63;13.60;;;1.80;99.90;;;;;;5014093;28;20738;-68
2021/03/01 01:38:37;;;;;;;17.37;13.17;;;1.80;99.90;;;;;;5034609;28;20225;-66
2021/03/01 01:41:03;;;;;;;18.03;12.93;;;1.80;99.90;;;;;;5035916;28;20172;-67
2021/03/01 01:43:28;;;;;;;16.97;13.43;;;1.70;99.90;;;;;;5044674;28;20180;-67
2021/03/01 01:45:54;;;;;;;17.40;13.67;;;1.70;99.90;;;;;;5032964;28;20200;-66
2021/03/01 01:48:19;;;;;;;16.93;13.60;;;1.60;99.90;;;;;;5035993;28;20278;-65
2021/03/01 01:50:45;;;;;;;19.87;14.67;;;1.50;99.90;;;;;;5027478;28;20183;-68
2021/03/01 01:53:11;;;;;;;21.80;15.07;;;1.40;99.90;;;;;;5030518;28;20183;-68
2021/03/01 01:55:36;;;;;;;17.73;14.00;;;1.40;99.90;;;;;;5036632;28;20747;-68
2021/03/01 01:58:02;;;;;;;18.53;14.37;;;1.40;99.90;;;;;;5039204;28;20210;-68
2021/03/01 02:03:15;;;;;;;16.90;13.77;;;1.30;99.90;;;;;;5041133;28;20270;-68
2021/03/01 02:05:42;;;;;;;15.27;13.13;;;1.30;99.90;;;;;;5035869;28;20194;-66
2021/03/01 02:08:10;;;;;;;17.33;13.73;;;1.30;99.90;;;;;;5049722;28;20183;-66
2021/03/01 02:11:15;;;;;;;16.03;13.77;;;1.30;99.90;;;;;;5036805;28;20191;-68
2021/03/01 02:13:48;;;;;;;17.47;14.43;;;1.30;99.90;;;;;;5029626;28;20653;-68
2021/03/01 02:16:20;;;;;;;16.23;14.20;;;1.30;99.90;;;;;;5024443;28;20276;-66
2021/03/01 02:18:46;;;;;;;17.57;13.47;;;1.20;99.90;;;;;;5030298;28;20195;-66
2021/03/01 02:21:14;;;;;;;18.43;13.40;;;1.20;99.90;;;;;;5030626;28;20216;-66
2021/03/01 02:23:41;;;;;;;18.90;13.27;;;1.20;99.90;;;;;;5042154;28;20557;-66
2021/03/01 02:26:16;;;;;;;17.57;13.47;;;1.20;99.90;;;;;;5022977;28;20187;-66
2021/03/01 02:28:46;;;;;;;17.37;13.93;;;1.10;99.90;;;;;;5019855;28;20186;-66
2021/03/01 02:31:13;;;;;;;17.03;13.80;;;1.10;99.90;;;;;;5022658;28;20227;-66
2021/03/01 02:33:44;;;;;;;16.67;13.47;;;1.10;99.90;;;;;;5016046;28;20207;-66
2021/03/01 02:36:19;;;;;;;23.67;14.77;;;1.10;99.90;;;;;;5027790;28;20176;-67
2021/03/01 02:38:46;;;;;;;19.70;14.00;;;1.10;99.90;;;;;;5035230;28;20689;-67
2021/03/01 02:41:12;;;;;;;18.27;13.47;;;1.10;99.90;;;;;;5018591;28;20187;-66
2021/03/01 02:43:40;;;;;;;19.60;13.27;;;1.00;99.90;;;;;;5020904;28;20925;-66
2021/03/01 02:46:07;;;;;;;19.83;14.80;;;1.00;99.90;;;;;;5031944;28;20173;-66
2021/03/01 02:48:35;;;;;;;19.13;13.70;;;1.00;99.90;;;;;;5026733;28;20223;-67
2021/03/01 02:51:01;;;;;;;18.33;14.73;;;1.00;99.90;;;;;;5026295;28;20178;-66
2021/03/01 02:53:29;;;;;;;22.77;13.77;;;1.10;99.90;;;;;;5018902;28;20324;-66
2021/03/01 02:55:56;;;;;;;20.17;15.13;;;1.00;99.90;;;;;;5032176;28;20685;-66
2021/03/01 02:58:23;;;;;;;18.17;14.10;;;1.00;99.90;;;;;;5036350;28;20201;-67
2021/03/01 03:00:50;;;;;;;17.57;13.57;;;1.00;99.90;;;;;;5044048;28;20245;-66
2021/03/01 03:03:16;;;;;;;19.70;14.53;;;1.00;99.90;;;;;;5028714;28;20188;-66
2021/03/01 03:05:44;;;;;;;18.97;14.97;;;1.00;99.90;;;;;;5022421;28;20201;-67
2021/03/01 03:08:12;;;;;;;18.30;14.13;;;1.00;99.90;;;;;;5021338;28;20230;-66
2021/03/01 03:10:39;;;;;;;19.13;14.67;;;1.00;99.90;;;;;;5031167;28;20179;-66
2021/03/01 03:13:06;;;;;;;18.43;14.10;;;1.00;99.90;;;;;;5046170;28;20261;-67
2021/03/01 03:15:33;;;;;;;20.53;14.30;;;1.00;99.90;;;;;;5040473;28;20254;-66
2021/03/01 03:18:00;;;;;;;22.00;14.97;;;1.10;99.90;;;;;;5021354;28;20191;-67
2021/03/01 03:20:26;;;;;;;18.23;14.63;;;1.10;99.90;;;;;;5041679;28;20665;-66
2021/03/01 03:22:52;;;;;;;19.90;15.33;;;1.10;99.90;;;;;;5029458;28;20203;-66
2021/03/01 03:25:18;;;;;;;22.37;16.27;;;1.10;99.90;;;;;;5028837;28;20700;-68
2021/03/01 03:27:43;;;;;;;18.57;15.47;;;1.10;99.90;;;;;;5024662;28;20176;-67
2021/03/01 03:30:13;;;;;;;21.13;16.17;;;1.10;99.90;;;;;;5013721;28;20531;-67
2021/03/01 03:32:40;;;;;;;21.80;15.97;;;1.10;99.90;;;;;;5024953;28;20241;-68
2021/03/01 03:35:08;;;;;;;22.00;15.53;;;1.10;99.90;;;;;;5015842;28;20206;-68
2021/03/01 03:37:50;;;;;;;21.53;15.33;;;1.10;99.90;;;;;;5014441;28;20189;-67
2021/03/01 03:40:17;;;;;;;19.33;14.30;;;1.00;99.90;;;;;;5026268;28;20653;-67
2021/03/01 03:42:43;;;;;;;22.63;15.33;;;1.00;99.90;;;;;;5021272;28;20199;-66
2021/03/01 03:45:14;;;;;;;23.30;15.60;;;1.00;99.90;;;;;;5014532;28;20293;-67
2021/03/01 03:47:43;;;;;;;20.00;15.37;;;1.00;99.90;;;;;;5023202;28;20708;-67
2021/03/01 03:50:10;;;;;;;19.57;15.77;;;0.90;99.90;;;;;;5012485;28;20182;-67
2021/03/01 03:52:41;;;;;;;19.23;15.30;;;0.80;99.90;;;;;;5023954;28;20657;-67
2021/03/01 03:55:11;;;;;;;20.73;15.93;;;0.80;99.90;;;;;;5024741;28;20639;-67
2021/03/01 03:57:39;;;;;;;18.87;15.20;;;0.80;99.90;;;;;;5030635;28;20221;-67
2021/03/01 04:00:10;;;;;;;21.90;16.63;;;0.80;99.90;;;;;;5033252;28;20641;-67
2021/03/01 04:02:38;;;;;;;20.63;15.37;;;0.70;99.90;;;;;;5019207;28;20167;-67
2021/03/01 04:05:06;;;;;;;20.90;16.17;;;0.70;99.90;;;;;;5029401;28;20783;-67
2021/03/01 04:07:33;;;;;;;19.77;15.27;;;0.70;99.90;;;;;;5034260;28;20175;-67
2021/03/01 04:10:00;;;;;;;18.70;15.73;;;0.70;99.90;;;;;;5016918;28;20189;-67
2021/03/01 04:12:29;;;;;;;20.00;14.77;;;0.60;99.90;;;;;;5024225;28;20267;-67
2021/03/01 04:14:56;;;;;;;21.20;16.30;;;0.60;99.90;;;;;;5024207;28;20202;-67
2021/03/01 04:17:22;;;;;;;18.97;15.33;;;0.60;99.90;;;;;;5019952;28;20196;-67
2021/03/01 04:19:48;;;;;;;20.17;15.83;;;0.60;99.90;;;;;;5031175;28;20256;-68
2021/03/01 04:22:15;;;;;;;22.70;15.57;;;0.50;99.90;;;;;;5042520;28;20188;-68
2021/03/01 04:24:43;;;;;;;19.00;16.00;;;0.50;99.90;;;;;;5023109;28;20197;-68
2021/03/01 04:27:10;;;;;;;18.43;14.47;;;0.50;99.90;;;;;;5024944;28;20204;-68
2021/03/01 04:29:36;;;;;;;17.97;14.90;;;0.50;99.90;;;;;;5034598;28;20173;-68
2021/03/01 04:32:02;;;;;;;20.10;15.07;;;0.50;99.90;;;;;;5021349;28;20795;-67
2021/03/01 04:34:28;;;;;;;18.43;13.50;;;0.50;99.90;;;;;;5025028;28;20281;-68
2021/03/01 04:36:55;;;;;;;18.73;15.10;;;0.50;99.90;;;;;;5020575;28;20666;-67
2021/03/01 04:39:22;;;;;;;19.23;15.13;;;0.50;99.90;;;;;;5022094;28;20212;-67
2021/03/01 04:41:48;;;;;;;17.27;14.60;;;0.50;99.90;;;;;;5020646;28;20194;-67
2021/03/01 04:44:16;;;;;;;20.87;15.33;;;0.50;99.90;;;;;;5036188;28;20278;-68
2021/03/01 04:46:48;;;;;;;20.87;14.57;;;0.40;99.90;;;;;;5014197;28;20175;-68
2021/03/01 04:49:14;;;;;;;22.23;15.30;;;0.30;99.90;;;;;;5023725;28;20191;-68
2021/03/01 04:51:40;;;;;;;22.50;14.97;;;0.30;99.90;;;;;;5016629;28;20180;-69
2021/03/01 04:54:09;;;;;;;19.27;14.40;;;0.20;99.90;;;;;;5020378;28;20761;-68
2021/03/01 04:56:35;;;;;;;17.93;13.53;;;0.20;99.90;;;;;;5021488;28;20676;-66
2021/03/01 04:59:01;;;;;;;19.23;14.57;;;0.10;99.90;;;;;;5018596;28;20211;-68
2021/03/01 05:01:28;;;;;;;18.30;14.20;;;0.10;99.90;;;;;;5014748;28;20183;-68
2021/03/01 05:03:54;;;;;;;21.27;14.77;;;0.10;99.90;;;;;;5015413;28;20210;-68
2021/03/01 05:06:20;;;;;;;22.20;15.10;;;0.10;99.90;;;;;;5021500;28;20182;-68
2021/03/01 05:08:46;;;;;;;23.23;14.23;;;0.10;99.90;;;;;;5032934;28;20667;-68
2021/03/01 05:11:32;;;;;;;23.43;15.87;;;0.10;99.90;;;;;;5033365;28;20190;-67
2021/03/01 05:13:58;;;;;;;21.50;14.67;;;0.10;99.90;;;;;;5014712;28;20291;-67
2021/03/01 05:16:25;;;;;;;21.10;15.63;;;0.10;99.90;;;;;;5043201;28;20383;-67
2021/03/01 05:18:51;;;;;;;20.83;15.33;;;0.10;99.90;;;;;;5023031;28;20246;-68
2021/03/01 05:21:16;;;;;;;22.50;15.97;;;0.00;99.90;;;;;;5022381;28;20181;-68
2021/03/01 05:23:42;;;;;;;20.07;15.07;;;0.00;99.90;;;;;;5017512;28;20255;-66
2021/03/01 05:26:08;;;;;;;19.37;14.20;;;0.00;99.90;;;;;;5025955;28;20249;-68
2021/03/01 05:28:36;;;;;;;20.13;13.50;;;-0.10;99.90;;;;;;5022594;28;20201;-66
2021/03/01 05:31:03;;;;;;;20.13;14.70;;;-0.10;99.90;;;;;;5027104;28;20193;-66
2021/03/01 05:33:29;;;;;;;22.63;15.13;;;-0.10;99.90;;;;;;5028895;28;20176;-66
2021/03/01 05:35:54;;;;;;;24.57;14.70;;;-0.10;99.90;;;;;;5028789;28;20559;-68
2021/03/01 05:38:20;;;;;;;21.63;14.93;;;-0.10;99.90;;;;;;5028651;28;20231;-66
2021/03/01 05:40:47;;;;;;;20.23;15.13;;;-0.10;99.90;;;;;;5030954;28;20191;-66
2021/03/01 05:43:14;;;;;;;20.00;15.17;;;-0.10;99.90;;;;;;5032289;28;20218;-65
2021/03/01 05:45:41;;;;;;;21.77;15.00;;;-0.10;99.90;;;;;;5026964;28;20210;-68
2021/03/01 05:48:09;;;;;;;21.83;16.10;;;-0.10;99.90;;;;;;5022960;28;20197;-65
2021/03/01 05:50:36;;;;;;;24.90;15.90;;;0.00;99.90;;;;;;5024199;28;20182;-67
2021/03/01 05:53:05;;;;;;;27.00;15.17;;;0.00;99.90;;;;;;5034383;28;20211;-66
2021/03/01 05:55:30;;;;;;;19.60;14.67;;;0.00;99.90;;;;;;5020892;28;20224;-67
2021/03/01 05:57:59;;;;;;;19.67;15.20;;;0.00;99.90;;;;;;5026007;28;20211;-67
2021/03/01 06:00:25;;;;;;;25.93;15.97;;;0.00;99.90;;;;;;5021502;28;20314;-65
2021/03/01 06:02:52;;;;;;;24.97;16.40;;;0.00;99.90;;;;;;5028771;28;20187;-67
2021/03/01 06:05:18;;;;;;;21.57;16.37;;;0.00;99.90;;;;;;5024663;28;20210;-67
2021/03/01 06:07:45;;;;;;;19.27;16.00;;;0.00;99.90;;;;;;5023242;28;20186;-67
2021/03/01 06:10:11;;;;;;;23.50;16.33;;;0.00;99.90;;;;;;5024677;28;20190;-66
2021/03/01 06:12:37;;;;;;;24.80;15.97;;;0.10;99.90;;;;;;5030004;28;20195;-65
2021/03/01 06:15:03;;;;;;;21.50;15.83;;;0.10;99.90;;;;;;5029065;28;20296;-65
2021/03/01 06:17:28;;;;;;;19.80;14.63;;;0.10;99.90;;;;;;5034707;28;20183;-66
2021/03/01 06:19:58;;;;;;;22.37;15.93;;;0.20;99.90;;;;;;5029542;28;20225;-65
2021/03/01 06:22:44;;;;;;;20.53;14.97;;;0.20;99.90;;;;;;5036659;28;20245;-66
2021/03/01 06:25:15;;;;;;;17.67;14.17;;;0.30;99.90;;;;;;5022562;28;20204;-66
2021/03/01 06:27:51;;;;;;;21.93;14.40;;;0.30;99.90;;;;;;5027881;28;20645;-68
2021/03/01 06:30:21;;;;;;;19.97;13.40;;;0.40;99.90;;;;;;5041834;28;20215;-68
2021/03/01 06:33:09;;;;;;;20.63;14.37;;;0.60;99.90;;;;;;5036572;28;20181;-70
2021/03/01 06:35:36;;;;;;;22.73;14.07;;;0.80;99.90;;;;;;5034161;28;20213;-68
2021/03/01 06:38:18;;;;;;;20.13;14.27;;;0.90;99.90;;;;;;5038087;28;20664;-70
2021/03/01 06:40:45;;;;;;;22.40;15.03;;;1.30;99.90;;;;;;5034949;28;20650;-69
2021/03/01 06:43:13;;;;;;;24.93;15.40;;;1.80;99.90;;;;;;5035192;28;20225;-68
2021/03/01 06:45:39;;;;;;;21.03;14.00;;;2.20;99.90;;;;;;5037950;28;20202;-68
2021/03/01 06:48:05;;;;;;;18.20;13.93;;;2.50;99.90;;;;;;5036572;28;20211;-67
2021/03/01 06:50:36;;;;;;;16.93;12.63;;;2.80;99.80;;;;;;5037145;28;20195;-67
2021/03/01 06:53:03;;;;;;;16.50;12.80;;;3.10;99.90;;;;;;5040716;28;20272;-69
2021/03/01 06:55:30;;;;;;;20.80;13.03;;;3.30;99.40;;;;;;5034995;28;20226;-69
2021/03/01 06:57:56;;;;;;;22.47;13.00;;;3.40;98.90;;;;;;5034704;28;20184;-70
2021/03/01 07:00:27;;;;;;;17.40;12.57;;;3.70;98.70;;;;;;5039858;28;20227;-68
2021/03/01 07:02:56;;;;;;;18.47;12.13;;;3.90;97.30;;;;;;5031436;28;20190;-69
2021/03/01 07:05:22;;;;;;;20.17;13.20;;;4.30;98.50;;;;;;5035767;28;20204;-67
2021/03/01 07:07:48;;;;;;;24.70;12.57;;;4.70;97.60;;;;;;5032909;28;20194;-68
2021/03/01 07:10:14;;;;;;;23.87;12.40;;;5.10;97.20;;;;;;5033972;28;20187;-68
2021/03/01 07:12:46;;;;;;;21.43;11.40;;;5.50;95.40;;;;;;5032503;28;20193;-68
2021/03/01 07:15:13;;;;;;;14.20;12.60;;;5.80;95.30;;;;;;5027784;28;20296;-69
2021/03/01 07:17:40;;;;;;;18.20;13.10;;;6.10;95.30;;;;;;5027267;28;20270;-68
2021/03/01 07:20:09;;;;;;;18.07;13.77;;;6.60;94.10;;;;;;5027277;28;20302;-69
2021/03/01 07:22:38;;;;;;;26.37;13.57;;;6.90;93.90;;;;;;5038522;28;20199;-69
2021/03/01 07:25:06;;;;;;;18.70;13.63;;;7.30;93.20;;;;;;5021161;28;20214;-69
2021/03/01 07:27:36;;;;;;;15.90;12.50;;;7.70;92.00;;;;;;5021286;28;20274;-69
2021/03/01 07:30:02;;;;;;;20.13;12.90;;;8.20;91.20;;;;;;5024788;28;20297;-69
2021/03/01 07:32:30;;;;;;;21.10;13.93;;;8.80;88.20;;;;;;5032147;28;20206;-69
2021/03/01 07:34:56;;;;;;;18.03;13.43;;;9.60;86.00;;;;;;5032928;28;20690;-70
2021/03/01 07:37:22;;;;;;;19.77;15.27;;;10.50;80.20;;;;;;5029606;28;20196;-70
2021/03/01 07:39:47;;;;;;;24.80;16.90;;;11.40;74.70;;;;;;5022527;28;20208;-70
2021/03/01 07:42:16;;;;;;;19.37;14.87;;;12.20;74.40;;;;;;5030672;28;20180;-70
2021/03/01 07:44:44;;;;;;;20.27;15.57;;;12.70;62.90;;;;;;5026898;28;20204;-70
2021/03/01 07:47:10;;;;;;;21.10;15.70;;;13.10;62.30;;;;;;5022093;28;20274;-70
2021/03/01 07:49:45;;;;;;;20.85;16.30;;;13.80;59.20;;;;;;5014270;28;20715;-70
2021/03/01 07:52:20;;;;;;;21.65;14.88;;;14.40;55.40;;;;;;5029128;28;20267;-70
2021/03/01 07:54:59;;;;;;;16.42;13.88;;;14.50;53.60;;;;;;5019629;28;20228;-70
2021/03/01 07:57:27;;;;;;;18.10;14.32;;;14.80;54.10;;;;;;5024456;28;20175;-70
2021/03/01 07:59:53;;;;;;;16.42;13.75;;;15.40;53.00;;;;;;5032434;28;20209;-70
2021/03/01 08:02:25;;;;;;;16.13;12.35;;;15.70;50.90;;;;;;5015217;28;20183;-71
2021/03/01 08:04:52;;;;;;;17.65;13.63;;;15.90;48.30;;;;;;5024054;28;20196;-70
2021/03/01 08:07:39;;;;;;;14.52;12.88;;;16.10;51.00;;;;;;5028905;28;20191;-70
2021/03/01 08:10:10;;;;;;;15.27;13.13;;;16.60;49.60;;;;;;5011370;28;20192;-71
2021/03/01 08:12:36;;;;;;;13.77;12.38;;;17.50;47.30;;;;;;5026337;28;20690;-70
2021/03/01 08:15:08;;;;;;;12.50;11.27;;;17.60;42.30;;;;;;5030873;28;20227;-69
2021/03/01 08:17:36;;;;;;;18.13;13.77;;;18.00;46.40;;;;;;5021460;28;20702;-71
2021/03/01 08:20:16;;;;;;;13.68;12.23;;;18.30;42.60;;;;;;5019685;28;20624;-71
2021/03/01 08:25:52;;;;;;;14.85;10.57;;;19.10;43.80;;;;;;5017114;28;20215;-70
2021/03/01 08:28:24;;;;;;;11.15;10.05;;;19.70;40.50;;;;;;5023733;28;20228;-70
2021/03/01 08:30:54;;;;;;;12.52;10.65;;;19.80;40.50;;;;;;5042103;28;20184;-69
2021/03/01 08:33:20;;;;;;;11.18;10.15;;;20.00;39.40;;;;;;5036407;28;20204;-70
2021/03/01 08:35:52;;;;;;;10.85;9.85;;;20.30;39.60;;;;;;5028877;28;20243;-70
2021/03/01 08:38:37;;;;;;;12.93;10.90;;;20.60;38.60;;;;;;5029140;28;20180;-70
2021/03/01 08:41:03;;;;;;;11.60;10.40;;;21.30;39.50;;;;;;5029312;28;20259;-70
2021/03/01 08:43:32;;;;;;;11.65;10.32;;;21.60;35.80;;;;;;5018723;28;20549;-70
2021/03/01 08:45:57;;;;;;;13.85;10.77;;;21.90;37.30;;;;;;5025505;28;20176;-69
2021/03/01 08:48:24;;;;;;;14.40;10.05;;;22.00;35.80;;;;;;5016455;28;20867;-70
2021/03/01 08:50:51;;;;;;;11.40;10.18;;;22.50;36.00;;;;;;5021801;28;20189;-70
2021/03/01 08:53:22;;;;;;;12.60;10.85;;;22.60;36.30;;;;;;5015039;28;20201;-70
2021/03/01 08:55:48;;;;;;;11.88;10.52;;;23.20;34.40;;;;;;5027568;28;20687;-69
2021/03/01 08:58:15;;;;;;;12.73;10.25;;;23.20;32.80;;;;;;5028581;28;20220;-70
2021/03/01 09:00:52;;;;;;;11.93;10.18;;;23.50;32.20;;;;;;5017170;28;20689;-69
2021/03/01 09:03:22;;;;;;;10.07;9.05;;;24.00;33.20;;;;;;5021214;28;20233;-70
2021/03/01 09:05:50;;;;;;;9.20;8.30;;;24.50;31.00;;;;;;5017331;28;20212;-69
2021/03/01 09:08:27;;;;;;;8.73;7.93;;;25.00;32.80;;;;;;5020611;28;20943;-70
2021/03/01 09:10:53;;;;;;;10.18;8.07;;;25.50;29.50;;;;;;5021175;28;20196;-70
2021/03/01 09:13:21;;;;;;;8.65;7.85;;;25.50;29.50;;;;;;5024101;28;20602;-71
2021/03/01 09:15:48;;;;;;;8.85;8.02;;;26.30;29.70;;;;;;5033696;28;20667;-70
2021/03/01 09:18:15;;;;;;;10.52;7.93;;;26.50;28.30;;;;;;5035964;28;20176;-70
2021/03/01 09:20:55;;;;;;;8.55;7.65;;;27.00;29.50;;;;;;5046633;28;20255;-70
2021/03/01 09:23:53;;;;;;;9.95;7.80;;;26.90;28.90;;;;;;5032369;28;20198;-69
2021/03/01 09:26:29;;;;;;;9.30;8.38;;;27.10;29.50;;;;;;4997462;28;20200;-70
2021/03/01 09:29:03;;;;;;;9.88;8.98;;;27.30;28.70;;;;;;5009550;28;20364;-71
2021/03/01 09:31:30;;;;;;;13.70;11.07;;;27.40;28.60;;;;;;5010903;28;20216;-70
2021/03/01 09:33:56;;;;;;;11.13;9.18;;;28.00;28.40;;;;;;5004718;28;20213;-71
2021/03/01 09:36:26;;;;;;;7.55;6.95;;;28.10;27.30;;;;;;5006965;28;20243;-70
2021/03/01 09:38:52;;;;;;;9.80;6.85;;;28.60;27.00;;;;;;5021485;28;20211;-70
2021/03/01 09:41:18;;;;;;;8.60;7.00;;;28.80;27.40;;;;;;5006949;28;20185;-74
2021/03/01 09:43:47;;;;;;;8.50;6.88;;;29.10;27.10;;;;;;5020105;28;20696;-74
2021/03/01 09:46:12;;;;;;;8.25;6.85;;;29.20;26.50;;;;;;4999764;28;20795;-72
2021/03/01 09:48:52;;;;;;;8.40;7.60;;;29.00;26.70;;;;;;5014208;28;20215;-73
2021/03/01 09:51:18;;;;;;;7.90;7.20;;;29.10;26.70;;;;;;5008971;28;20193;-74
2021/03/01 09:53:45;;;;;;;8.57;6.95;;;29.40;27.50;;;;;;5014900;28;20212;-73
2021/03/01 09:56:11;;;;;;;8.60;7.10;;;29.70;26.00;;;;;;5008876;28;20192;-74
2021/03/01 09:58:42;;;;;;;7.55;6.72;;;29.90;27.20;;;;;;4997884;28;20204;-74
2021/03/01 10:01:07;;;;;;;7.78;7.07;;;30.10;23.90;;;;;;5017463;28;20225;-74
2021/03/01 10:03:43;;;;;;;8.50;6.32;;;29.90;26.30;;;;;;5023035;28;20204;-72
2021/03/01 10:06:11;;;;;;;7.90;6.72;;;30.20;26.10;;;;;;5020914;28;20181;-74
2021/03/01 10:08:38;;;;;;;7.47;6.32;;;30.40;24.80;;;;;;5025570;28;20172;-73
2021/03/01 10:11:05;;;;;;;7.68;6.15;;;30.60;24.70;;;;;;5031841;28;20175;-74
2021/03/01 10:13:35;;;;;;;11.30;6.50;;;31.00;25.30;;;;;;5044317;28;20192;-73
2021/03/01 10:16:07;;;;;;;8.85;6.80;;;31.40;24.50;;;;;;5030943;28;20659;-73
2021/03/01 10:18:33;;;;;;;12.52;6.32;;;31.30;25.30;;;;;;5026387;28;20200;-74
2021/03/01 10:21:07;;;;;;;8.57;7.10;;;31.40;23.90;;;;;;5042333;28;20830;-74
2021/03/01 10:23:39;;;;;;;7.35;6.63;;;31.70;25.00;;;;;;5042984;28;20262;-74
2021/03/01 10:26:21;;;;;;;8.32;6.55;;;31.90;24.90;;;;;;5020587;28;20547;-74
2021/03/01 10:28:58;;;;;;;7.97;6.40;;;32.00;24.50;;;;;;5045107;28;20175;-74
2021/03/01 10:31:26;;;;;;;9.23;5.65;;;32.10;23.60;;;;;;5029534;28;20260;-74
2021/03/01 10:33:59;;;;;;;8.05;5.65;;;32.70;23.30;;;;;;5035139;28;20223;-74
2021/03/01 10:36:29;;;;;;;6.95;6.13;;;32.90;23.60;;;;;;5038950;28;20666;-74
2021/03/01 10:38:58;;;;;;;7.97;6.40;;;32.60;22.40;;;;;;5030343;28;20689;-74
2021/03/01 10:41:29;;;;;;;7.03;6.32;;;32.30;23.60;;;;;;5041915;28;20187;-75
2021/03/01 10:44:03;;;;;;;6.72;6.13;;;32.10;24.10;;;;;;5023404;28;20567;-74
2021/03/01 10:46:30;;;;;;;9.40;6.00;;;32.70;24.40;;;;;;5036635;28;20258;-75
2021/03/01 10:48:55;;;;;;;6.25;5.75;;;32.60;23.20;;;;;;5027739;28;20222;-74
2021/03/01 10:51:21;;;;;;;7.30;5.53;;;32.60;23.70;;;;;;5028132;28;20187;-74
2021/03/01 10:53:47;;;;;;;7.97;5.75;;;32.50;23.50;;;;;;5027693;28;20253;-75
2021/03/01 10:56:12;;;;;;;6.50;5.40;;;32.60;23.30;;;;;;5027525;28;20229;-75
2021/03/01 10:58:38;;;;;;;6.70;5.28;;;32.90;24.50;;;;;;5026941;28;20262;-75
2021/03/01 11:01:03;;;;;;;5.80;5.15;;;33.00;22.20;;;;;;5038694;28;20222;-75
2021/03/01 11:03:29;;;;;;;6.10;4.75;;;33.20;22.90;;;;;;5031460;28;20621;-76
2021/03/01 11:05:54;;;;;;;8.45;4.90;;;33.10;22.60;;;;;;5024489;28;20707;-75
2021/03/01 11:08:21;;;;;;;6.65;4.28;;;33.00;23.30;;;;;;5034629;28;20172;-75
2021/03/01 11:10:47;;;;;;;7.57;6.03;;;32.90;22.60;;;;;;5030339;28;20172;-75
2021/03/01 11:13:12;;;;;;;6.25;5.75;;;33.20;23.10;;;;;;5027249;28;20179;-76
2021/03/01 11:15:40;;;;;;;6.03;5.43;;;33.60;22.00;;;;;;5008364;28;20725;-76
2021/03/01 11:18:06;;;;;;;6.90;4.40;;;33.40;22.30;;;;;;5029459;28;20180;-76
2021/03/01 11:20:31;;;;;;;5.20;4.53;;;33.70;22.60;;;;;;5028227;28;20265;-75
2021/03/01 11:22:57;;;;;;;5.40;4.60;;;33.80;22.60;;;;;;5019646;28;20192;-75
2021/03/01 11:25:23;;;;;;;5.35;4.32;;;33.90;22.60;;;;;;5033501;28;20651;-75
2021/03/01 11:27:48;;;;;;;5.53;4.10;;;33.80;21.70;;;;;;5023708;28;20191;-76
2021/03/01 11:30:16;;;;;;;5.72;3.75;;;33.70;21.50;;;;;;5021458;28;20224;-74
2021/03/01 11:32:41;;;;;;;4.43;4.03;;;33.50;20.80;;;;;;5037193;28;20254;-76
2021/03/01 11:35:07;;;;;;;5.93;3.75;;;33.00;21.70;;;;;;5025301;28;20655;-74
2021/03/01 11:37:33;;;;;;;4.18;3.78;;;33.20;21.50;;;;;;5021009;28;20192;-75
2021/03/01 11:39:58;;;;;;;6.90;4.97;;;33.70;21.80;;;;;;5031706;28;20225;-75
2021/03/01 11:42:24;;;;;;;4.35;3.95;;;33.60;21.90;;;;;;5022091;28;20206;-75
2021/03/01 11:44:49;;;;;;;3.78;3.47;;;33.60;20.60;;;;;;5028371;28;20252;-75
2021/03/01 11:47:15;;;;;;;3.85;3.45;;;33.80;20.60;;;;;;5021211;28;20198;-75
2021/03/01 11:49:41;;;;;;;3.63;2.78;;;33.90;21.10;;;;;;5034994;28;20603;-75
2021/03/01 11:52:07;;;;;;;4.25;2.90;;;33.90;20.10;;;;;;5035661;28;20664;-75
2021/03/01 11:54:33;;;;;;;5.45;2.97;;;33.90;19.90;;;;;;5027516;28;20238;-75
2021/03/01 11:56:58;;;;;;;5.50;3.30;;;33.90;19.40;;;;;;5036780;28;20215;-75
2021/03/01 11:59:24;;;;;;;6.55;3.38;;;33.40;21.30;;;;;;5025921;28;20207;-75
2021/03/01 12:01:49;;;;;;;3.67;3.22;;;33.70;20.30;;;;;;5041704;28;20196;-74
2021/03/01 12:04:15;;;;;;;5.45;3.45;;;33.40;20.50;;;;;;5027641;28;20897;-72
2021/03/01 12:06:41;;;;;;;4.25;3.88;;;33.30;21.20;;;;;;5011720;28;20237;-75
2021/03/01 12:09:06;;;;;;;3.83;2.67;;;33.60;21.80;;;;;;5022537;28;20235;-73
2021/03/01 12:11:32;;;;;;;3.75;3.42;;;34.10;21.00;;;;;;5022669;28;20568;-75
2021/03/01 12:13:57;;;;;;;3.22;2.83;;;34.60;20.60;;;;;;5017034;28;20204;-75
2021/03/01 12:16:23;;;;;;;5.85;3.08;;;34.90;20.20;;;;;;5029673;28;20533;-75
2021/03/01 12:18:49;;;;;;;3.08;2.70;;;34.50;20.50;;;;;;5026766;28;20663;-75
2021/03/01 12:21:14;;;;;;;2.78;2.58;;;34.50;21.40;;;;;;5025317;28;20180;-75
2021/03/01 12:23:40;;;;;;;4.35;2.92;;;34.50;20.60;;;;;;5026666;28;20326;-76
2021/03/01 12:26:06;;;;;;;4.53;2.50;;;34.20;19.80;;;;;;5036001;28;20217;-75
2021/03/01 12:28:31;;;;;;;6.60;3.08;;;34.10;20.00;;;;;;5036320;28;20207;-76
2021/03/01 12:30:57;;;;;;;5.63;3.10;;;33.80;20.60;;;;;;5034242;28;20581;-75
2021/03/01 12:33:22;;;;;;;2.78;2.47;;;33.90;21.40;;;;;;5028139;28;20179;-74
2021/03/01 12:35:48;;;;;;;5.30;3.15;;;33.60;21.30;;;;;;5018890;28;20255;-75
2021/03/01 12:38:13;;;;;;;3.33;3.03;;;33.60;21.50;;;;;;5036418;28;20170;-75
2021/03/01 12:40:39;;;;;;;3.75;3.38;;;33.30;20.50;;;;;;5033826;28;20222;-75
2021/03/01 12:43:05;;;;;;;20.83;4.20;;;33.30;21.60;;;;;;5023282;28;20180;-75
2021/03/01 12:45:32;;;;;;;6.30;2.90;;;32.70;21.00;;;;;;5015564;28;20261;-74
2021/03/01 12:47:58;;;;;;;4.22;3.40;;;32.60;21.70;;;;;;5042026;28;20198;-75